Share

Salalah, Oman

Salalah (OOSA) Elev 66 ft | 17.04 °N, 54.09 °E | Change Station

Current weather conditions updated 1 hour ago

Clear
Clear
77 °F
Feels Like 77 °F
N
5
Wind Variable Wind from North
Sunrise 6:05 AM
Sunset 6:40 PM
Moon Waning Gibbous

Today is forecast to be nearly the same temperature as yesterday.

Pressure 29.89 in
Visibility -9999.0 miles
Clouds
Dew Point 64 °F
Humidity 65%
Rainfall 0.00 in
Snow Depth Not available.
UV Not available.
Pollen Not available.
Air Quality Not available.
Flu Activity Not available.
METAR OOSA 190250Z 36004KT CAVOK 25/18 Q1012 NOSIG

More Conditions Fewer Conditions

Pressure 29.89 in
Visibility -9999.0 miles
Clouds
Dew Point 64 °F
Humidity 65%
Rainfall 0.00 in
Snow Depth Not available.
UV Not available.
Pollen Not available.
Air Quality Not available.
Flu Activity Not available.
METAR OOSA 190250Z 36004KT CAVOK 25/18 Q1012 NOSIG

More Conditions Fewer Conditions

10-Day Weather Forecast

Almanac

Astronomy

Apr. 19, 2014 Rise Set
Actual Time 6:05 AM GST 6:40 PM GST
Civil Twilight 5:43 AM GST 7:02 PM GST
Nautical Twilight 5:17 AM GST 7:28 PM GST
Astronomical Twilight 4:51 AM GST 7:54 PM GST
Moon 10:40 PM GST 9:20 AM GST
Length of Visible Light 13h 19m
Length of Day
12h 34m
Tomorrow will be 0m 53s longer.
Waning Gibbous, 83% of the Moon is Illuminated
Today
Waning Gibbous
Apr 22
Last Quarter
Apr 29
New
May 6
First Quarter
May 14
Full

Yesterday's Extremes

Country Highs Country Lows

Community

  • Sunset Silhouettes
    Sunset Silhouettes
  • FL sunset Perico Isle
    FL sunset Perico Isle
  • Cloudy spring view
    Cloudy spring view
  • Old barn
    Old barn
  • What's for Lunch?
    What's for Lunch?

WunderPhotos

Upload Photos

1,702,637 photos uploaded!

WunderBlogs® & News

Nearby

Snow Depth

Not available.

Coastal Water Temperatures

Place Temperature
No Stations Reporting

Earthquake Activity

City Distance Mag. Time & Date
No recent earthquake activity has been reported nearby.
Minimum magnitude displayed is 2.5.

Nearby Weather Stations

There are no personal weather stations in this area.

What do you think?

We're not finished. Please let us know what you like, what you don't like, and what you are still missing.